Time,TemperatureF,DewpointF,PressureIn,WindDirection,WindDirectionDegrees,WindSpeedMPH,WindSpeedGustMPH,Humidity,HourlyPrecipIn,Conditions,Clouds,dailyrainin,SolarRadiationWatts/m^2,SoftwareType,DateUTC
2013-04-06 00:02:00,68.7,51.0,30.15,NNW,338,2.0,-999.0,54,-99.99,,,0.00,0,weatherlink.com 1.10,2013-04-06 07:02:00,
2013-04-06 00:17:00,68.4,51.0,30.15,NW,321,0.0,-999.0,54,-99.99,,,0.00,0,weatherlink.com 1.10,2013-04-06 07:17:00,
2013-04-06 00:32:00,68.0,51.0,30.14,North,5,0.0,-999.0,54,-99.99,,,0.00,0,weatherlink.com 1.10,2013-04-06 07:32:00,
2013-04-06 00:47:00,67.9,50.0,30.14,NNW,339,4.0,-999.0,54,-99.99,,,0.00,0,weatherlink.com 1.10,2013-04-06 07:47:00,
2013-04-06 01:02:00,67.9,51.0,30.15,North,355,5.0,-999.0,55,-99.99,,,0.00,0,weatherlink.com 1.10,2013-04-06 08:02:00,
2013-04-06 01:17:00,67.8,51.0,30.15,NNW,328,6.0,-999.0,55,-99.99,,,0.00,0,weatherlink.com 1.10,2013-04-06 08:17:00,
2013-04-06 01:32:00,67.7,51.0,30.14,NNW,331,6.0,-999.0,55,-99.99,,,0.00,0,weatherlink.com 1.10,2013-04-06 08:32:00,
2013-04-06 01:47:00,67.7,51.0,30.15,NNW,338,6.0,-999.0,55,-99.99,,,0.00,0,weatherlink.com 1.10,2013-04-06 08:47:00,
2013-04-06 02:02:00,67.5,51.0,30.14,NNE,24,8.0,-999.0,56,-99.99,,,0.00,0,weatherlink.com 1.10,2013-04-06 09:02:00,
2013-04-06 02:17:00,67.2,51.0,30.14,NNW,341,12.0,-999.0,56,-99.99,,,0.00,0,weatherlink.com 1.10,2013-04-06 09:17:00,
2013-04-06 02:32:00,67.0,51.0,30.14,NW,323,5.0,-999.0,57,-99.99,,,0.00,0,weatherlink.com 1.10,2013-04-06 09:32:00,
2013-04-06 02:47:00,66.5,51.0,30.14,NW,326,2.0,-999.0,58,-99.99,,,0.00,0,weatherlink.com 1.10,2013-04-06 09:47:00,
2013-04-06 03:02:00,66.1,51.0,30.14,NW,326,8.0,-999.0,58,-99.99,,,0.00,0,weatherlink.com 1.10,2013-04-06 10:02:00,
2013-04-06 03:17:00,65.9,51.0,30.13,NNW,334,10.0,-999.0,58,-99.99,,,0.00,0,weatherlink.com 1.10,2013-04-06 10:17:00,
2013-04-06 03:32:00,65.6,50.0,30.13,WNW,302,7.0,-999.0,58,-99.99,,,0.00,0,weatherlink.com 1.10,2013-04-06 10:32:00,
2013-04-06 03:47:00,65.4,50.0,30.13,NNW,329,4.0,-999.0,58,-99.99,,,0.00,0,weatherlink.com 1.10,2013-04-06 10:47:00,
2013-04-06 04:02:00,65.1,50.0,30.13,NNW,329,10.0,-999.0,58,-99.99,,,0.00,0,weatherlink.com 1.10,2013-04-06 11:02:00,
2013-04-06 04:17:00,65.1,50.0,30.13,NW,317,10.0,-999.0,58,-99.99,,,0.00,0,weatherlink.com 1.10,2013-04-06 11:17:00,
2013-04-06 04:32:00,64.8,49.0,30.13,NNW,340,7.0,-999.0,58,-99.99,,,0.00,0,weatherlink.com 1.10,2013-04-06 11:32:00,
2013-04-06 04:48:00,64.4,50.0,30.13,NNW,331,4.0,-999.0,59,-99.99,,,0.00,0,weatherlink.com 1.10,2013-04-06 11:48:00,
2013-04-06 05:03:00,64.2,49.0,30.14,NNW,332,6.0,-999.0,59,-99.99,,,0.00,0,weatherlink.com 1.10,2013-04-06 12:03:00,
2013-04-06 05:18:00,64.1,49.0,30.14,NNW,336,9.0,-999.0,58,-99.99,,,0.00,0,weatherlink.com 1.10,2013-04-06 12:18:00,
2013-04-06 05:33:00,63.9,49.0,30.14,NNW,331,7.0,-999.0,59,-99.99,,,0.00,0,weatherlink.com 1.10,2013-04-06 12:33:00,
2013-04-06 05:48:00,63.8,49.0,30.14,NNW,334,5.0,-999.0,59,-99.99,,,0.00,0,weatherlink.com 1.10,2013-04-06 12:48:00,
2013-04-06 06:03:00,63.8,49.0,30.16,NNW,335,2.0,-999.0,58,-99.99,,,0.00,0,weatherlink.com 1.10,2013-04-06 13:03:00,
2013-04-06 06:18:00,63.7,48.0,30.16,NNW,331,0.0,-999.0,58,-99.99,,,0.00,0,weatherlink.com 1.10,2013-04-06 13:18:00,
2013-04-06 06:33:00,63.6,48.0,30.17,North,355,9.0,-999.0,58,-99.99,,,0.00,9,weatherlink.com 1.10,2013-04-06 13:33:00,
2013-04-06 06:49:00,63.9,48.0,30.17,NNW,344,5.0,-999.0,57,-99.99,,,0.00,28,weatherlink.com 1.10,2013-04-06 13:49:00,
2013-04-06 07:03:00,64.1,48.0,30.18,NNW,337,5.0,-999.0,57,-99.99,,,0.00,51,weatherlink.com 1.10,2013-04-06 14:03:00,
2013-04-06 07:18:00,64.6,48.0,30.19,NNW,334,1.0,-999.0,56,-99.99,,,0.00,113,weatherlink.com 1.10,2013-04-06 14:18:00,
2013-04-06 07:33:00,65.3,48.0,30.19,NNW,333,2.0,-999.0,54,-99.99,,,0.00,149,weatherlink.com 1.10,2013-04-06 14:33:00,
2013-04-06 07:48:00,66.0,49.0,30.20,NNW,334,0.0,-999.0,54,-99.99,,,0.00,230,weatherlink.com 1.10,2013-04-06 14:48:00,
2013-04-06 08:03:00,66.9,49.0,30.20,NNW,334,4.0,-999.0,53,-99.99,,,0.00,239,weatherlink.com 1.10,2013-04-06 15:03:00,
2013-04-06 08:18:00,67.9,49.0,30.21,NNW,336,0.0,-999.0,52,-99.99,,,0.00,287,weatherlink.com 1.10,2013-04-06 15:18:00,
2013-04-06 08:33:00,68.8,49.0,30.21,NNW,336,0.0,-999.0,50,-99.99,,,0.00,345,weatherlink.com 1.10,2013-04-06 15:33:00,
2013-04-06 08:48:00,69.8,50.0,30.21,NNW,336,0.0,-999.0,49,-99.99,,,0.00,345,weatherlink.com 1.10,2013-04-06 15:48:00,
2013-04-06 09:34:00,73.4,49.0,30.21,NNW,333,0.0,-999.0,43,-99.99,,,0.00,552,weatherlink.com 1.10,2013-04-06 16:34:00,
2013-04-06 09:49:00,74.2,49.0,30.22,NNW,348,7.0,-999.0,41,-99.99,,,0.00,605,weatherlink.com 1.10,2013-04-06 16:49:00,
2013-04-06 10:19:00,75.6,48.0,30.22,NNW,338,2.0,-999.0,38,-99.99,,,0.00,677,weatherlink.com 1.10,2013-04-06 17:19:00,
2013-04-06 10:49:00,77.5,49.0,30.21,NNW,347,0.0,-999.0,37,-99.99,,,0.00,742,weatherlink.com 1.10,2013-04-06 17:49:00,
2013-04-06 11:04:00,78.6,50.0,30.22,NNW,346,0.0,-999.0,37,-99.99,,,0.00,777,weatherlink.com 1.10,2013-04-06 18:04:00,
2013-04-06 11:19:00,79.4,50.0,30.21,NNW,346,5.0,-999.0,36,-99.99,,,0.00,784,weatherlink.com 1.10,2013-04-06 18:19:00,
2013-04-06 11:49:00,80.6,50.0,30.20,NNW,344,10.0,-999.0,34,-99.99,,,0.00,854,weatherlink.com 1.10,2013-04-06 18:49:00,
2013-04-06 12:04:00,80.6,47.0,30.20,NNW,344,0.0,-999.0,31,-99.99,,,0.00,849,weatherlink.com 1.10,2013-04-06 19:04:00,
2013-04-06 12:19:00,81.0,48.0,30.19,NNW,345,2.0,-999.0,31,-99.99,,,0.00,856,weatherlink.com 1.10,2013-04-06 19:19:00,
2013-04-06 12:34:00,81.6,45.0,30.19,NNW,338,4.0,-999.0,28,-99.99,,,0.00,877,weatherlink.com 1.10,2013-04-06 19:34:00,
2013-04-06 12:49:00,82.8,46.0,30.18,NNW,333,0.0,-999.0,27,-99.99,,,0.00,888,weatherlink.com 1.10,2013-04-06 19:49:00,
2013-04-06 13:04:00,83.2,45.0,30.17,NNW,331,0.0,-999.0,26,-99.99,,,0.00,889,weatherlink.com 1.10,2013-04-06 20:04:00,
2013-04-06 13:19:00,84.2,46.0,30.16,NNW,331,2.0,-999.0,26,-99.99,,,0.00,856,weatherlink.com 1.10,2013-04-06 20:19:00,
2013-04-06 13:34:00,84.6,44.0,30.16,NNW,331,0.0,-999.0,24,-99.99,,,0.00,846,weatherlink.com 1.10,2013-04-06 20:34:00,
2013-04-06 14:05:00,85.8,47.0,30.14,NNW,330,0.0,-999.0,26,-99.99,,,0.00,814,weatherlink.com 1.10,2013-04-06 21:05:00,
2013-04-06 14:20:00,86.3,47.0,30.13,NNW,330,0.0,-999.0,25,-99.99,,,0.00,791,weatherlink.com 1.10,2013-04-06 21:20:00,
2013-04-06 14:50:00,88.1,45.0,30.12,NNW,330,0.0,-999.0,22,-99.99,,,0.00,749,weatherlink.com 1.10,2013-04-06 21:50:00,
2013-04-06 15:05:00,88.1,45.0,30.11,NNW,330,0.0,-999.0,22,-99.99,,,0.00,705,weatherlink.com 1.10,2013-04-06 22:05:00,
2013-04-06 15:20:00,88.4,46.0,30.09,NNW,330,0.0,-999.0,23,-99.99,,,0.00,663,weatherlink.com 1.10,2013-04-06 22:20:00,
2013-04-06 15:35:00,88.7,45.0,30.09,NNW,330,5.0,-999.0,22,-99.99,,,0.00,619,weatherlink.com 1.10,2013-04-06 22:35:00,
2013-04-06 15:50:00,89.2,47.0,30.08,NNW,330,4.0,-999.0,23,-99.99,,,0.00,577,weatherlink.com 1.10,2013-04-06 22:50:00,
2013-04-06 16:05:00,88.5,47.0,30.07,NNW,330,7.0,-999.0,24,-99.99,,,0.00,526,weatherlink.com 1.10,2013-04-06 23:05:00,
2013-04-06 16:20:00,88.3,47.0,30.07,NNW,331,1.0,-999.0,24,-99.99,,,0.00,478,weatherlink.com 1.10,2013-04-06 23:20:00,
2013-04-06 16:35:00,87.7,48.0,30.06,NNW,334,0.0,-999.0,25,-99.99,,,0.00,427,weatherlink.com 1.10,2013-04-06 23:35:00,
2013-04-06 16:50:00,87.5,49.0,30.06,NNW,346,0.0,-999.0,26,-99.99,,,0.00,383,weatherlink.com 1.10,2013-04-06 23:50:00,
2013-04-06 17:05:00,87.3,48.0,30.06,NNW,331,6.0,-999.0,26,-99.99,,,0.00,336,weatherlink.com 1.10,2013-04-07 00:05:00,
2013-04-06 17:20:00,86.2,49.0,30.06,North,355,6.0,-999.0,28,-99.99,,,0.00,288,weatherlink.com 1.10,2013-04-07 00:20:00,
2013-04-06 17:35:00,85.2,50.0,30.06,NNW,334,2.0,-999.0,30,-99.99,,,0.00,243,weatherlink.com 1.10,2013-04-07 00:35:00,
2013-04-06 17:50:00,84.8,50.0,30.06,NNW,334,2.0,-999.0,30,-99.99,,,0.00,188,weatherlink.com 1.10,2013-04-07 00:50:00,
2013-04-06 18:05:00,83.7,50.0,30.06,NNW,330,2.0,-999.0,31,-99.99,,,0.00,134,weatherlink.com 1.10,2013-04-07 01:05:00,
2013-04-06 18:20:00,81.6,51.0,30.06,NNW,340,2.0,-999.0,34,-99.99,,,0.00,81,weatherlink.com 1.10,2013-04-07 01:20:00,
2013-04-06 18:35:00,80.5,50.0,30.06,NNW,331,5.0,-999.0,35,-99.99,,,0.00,42,weatherlink.com 1.10,2013-04-07 01:35:00,
2013-04-06 18:50:00,79.4,49.0,30.07,NNW,336,1.0,-999.0,35,-99.99,,,0.00,16,weatherlink.com 1.10,2013-04-07 01:50:00,
2013-04-06 19:05:00,78.6,49.0,30.07,NW,317,5.0,-999.0,36,-99.99,,,0.00,5,weatherlink.com 1.10,2013-04-07 02:05:00,
2013-04-06 19:20:00,77.8,49.0,30.07,NNW,330,10.0,-999.0,37,-99.99,,,0.00,0,weatherlink.com 1.10,2013-04-07 02:20:00,
2013-04-06 19:35:00,77.1,50.0,30.07,NNW,339,7.0,-999.0,38,-99.99,,,0.00,0,weatherlink.com 1.10,2013-04-07 02:35:00,
2013-04-06 19:50:00,76.4,50.0,30.07,NW,314,7.0,-999.0,40,-99.99,,,0.00,0,weatherlink.com 1.10,2013-04-07 02:50:00,
2013-04-06 20:05:00,75.9,51.0,30.08,North,360,3.0,-999.0,42,-99.99,,,0.00,0,weatherlink.com 1.10,2013-04-07 03:05:00,
2013-04-06 20:20:00,75.1,52.0,30.08,NNW,333,6.0,-999.0,44,-99.99,,,0.00,0,weatherlink.com 1.10,2013-04-07 03:20:00,
2013-04-06 20:35:00,74.5,52.0,30.09,NNW,330,1.0,-999.0,45,-99.99,,,0.00,0,weatherlink.com 1.10,2013-04-07 03:35:00,
2013-04-06 20:50:00,74.0,52.0,30.09,NNW,340,9.0,-999.0,46,-99.99,,,0.00,0,weatherlink.com 1.10,2013-04-07 03:50:00,
2013-04-06 21:05:00,73.4,52.0,30.09,NNW,342,6.0,-999.0,47,-99.99,,,0.00,0,weatherlink.com 1.10,2013-04-07 04:05:00,
2013-04-06 21:20:00,72.9,52.0,30.09,NNW,339,4.0,-999.0,48,-99.99,,,0.00,0,weatherlink.com 1.10,2013-04-07 04:20:00,
2013-04-06 21:35:00,72.4,52.0,30.10,NNW,342,4.0,-999.0,49,-99.99,,,0.00,0,weatherlink.com 1.10,2013-04-07 04:35:00,
2013-04-06 21:50:00,71.9,52.0,30.10,North,350,6.0,-999.0,50,-99.99,,,0.00,0,weatherlink.com 1.10,2013-04-07 04:50:00,
2013-04-06 22:05:00,71.5,52.0,30.11,NNW,343,8.0,-999.0,51,-99.99,,,0.00,0,weatherlink.com 1.10,2013-04-07 05:05:00,
2013-04-06 22:20:00,70.9,52.0,30.10,North,5,9.0,-999.0,52,-99.99,,,0.00,0,weatherlink.com 1.10,2013-04-07 05:20:00,
2013-04-06 22:35:00,70.7,52.0,30.11,NNW,347,7.0,-999.0,52,-99.99,,,0.00,0,weatherlink.com 1.10,2013-04-07 05:35:00,
2013-04-06 22:50:00,70.8,52.0,30.11,NNW,336,1.0,-999.0,51,-99.99,,,0.00,0,weatherlink.com 1.10,2013-04-07 05:50:00,